Eielson Air Force Base Airport (EIL)

 

Airport Diagram
Current Weather/Forecast (VFR Conditions)
METAR PAEI 312156Z 18003KT 10SM FEW008 M20/M23 A2891 RMK AO2A SLP808 T11961230 $
TAF TAF PAEI 312200Z 3122/0204 23009KT 9999 VCSH FEW010 BKN150 QNH2889INS BECMG 0104/0105 23006KT 9000 BR VCSH SCT012 BKN130 QNH2889INS BECMG 0114/0115 VRB06KT 8000 -SHSN BR SCT010 BKN050 BKN110 600509 QNH2898INS BECMG 0122/0123 24009KT 6000 -SN BR SCT010 BKN025 BKN100 600259 QNH2890INS TXM18/3123Z TNM25/0119Z

All Charts

Inbound Traffic (Arrivals)

No inbound traffic.


Outbound Traffic (Departures)

No outbound traffic.